createdAt,value
2022-08-19T00:03:28.651Z,11.10
2022-08-19T00:08:30.322Z,12.07
2022-08-19T00:13:31.975Z,10.80
2022-08-19T00:18:34.139Z,11.30
2022-08-19T00:23:37.199Z,11.97
2022-08-19T00:28:38.936Z,11.83
2022-08-19T00:33:40.596Z,11.60
2022-08-19T00:38:43.824Z,12.67
2022-08-19T00:44:11.353Z,11.60
2022-08-19T00:49:20.392Z,11.80
2022-08-19T00:54:24.855Z,12.10
2022-08-19T01:00:01.210Z,12.27
2022-08-19T01:04:54.513Z,11.30
2022-08-19T01:09:56.184Z,12.90
2022-08-19T01:14:57.867Z,11.93
2022-08-19T01:20:00.751Z,10.80
2022-08-19T01:25:02.486Z,11.20
2022-08-19T01:30:06.702Z,11.33
2022-08-19T01:35:08.766Z,12.87
2022-08-19T01:40:11.056Z,12.07
2022-08-19T01:45:12.785Z,11.77
2022-08-19T01:50:14.554Z,12.93
2022-08-19T01:55:18.482Z,12.30
2022-08-19T02:00:21.014Z,12.10
2022-08-19T02:05:22.692Z,11.90
2022-08-19T02:10:24.471Z,12.43
2022-08-19T02:15:26.730Z,12.00
2022-08-19T02:20:28.408Z,11.63
2022-08-19T02:25:30.400Z,11.87
2022-08-19T02:30:32.349Z,12.10
2022-08-19T02:35:34.064Z,11.73
2022-08-19T02:40:35.831Z,11.73
2022-08-19T02:45:41.528Z,11.50
2022-08-19T02:50:53.257Z,11.90
2022-08-19T02:55:55.347Z,10.90
2022-08-19T03:00:57.353Z,11.60
2022-08-19T03:06:07.263Z,11.50
2022-08-19T03:11:20.853Z,11.10
2022-08-19T03:16:24.515Z,11.30
2022-08-19T03:21:26.662Z,10.63
2022-08-19T03:26:28.362Z,11.70
2022-08-19T03:31:43.664Z,10.83
2022-08-19T03:36:51.918Z,11.00
2022-08-19T03:42:30.110Z,11.63
2022-08-19T03:47:16.577Z,10.63
2022-08-19T03:52:18.298Z,11.30
2022-08-19T03:57:19.991Z,11.20
2022-08-19T04:02:22.323Z,11.20
2022-08-19T04:07:23.984Z,11.87
2022-08-19T04:12:25.647Z,11.03
2022-08-19T04:17:27.325Z,11.13
2022-08-19T04:22:28.983Z,11.50
2022-08-19T04:27:32.131Z,12.23
2022-08-19T04:32:33.788Z,11.63
2022-08-19T04:37:35.887Z,11.80
2022-08-19T04:42:40.264Z,10.80
2022-08-19T04:47:47.045Z,11.50
2022-08-19T04:52:52.228Z,11.70
2022-08-19T04:57:54.856Z,11.97
2022-08-19T05:02:56.528Z,12.07
2022-08-19T05:07:58.196Z,11.80
2022-08-19T05:12:59.960Z,11.17
2022-08-19T05:18:20.277Z,11.60
2022-08-19T05:23:23.131Z,11.20
2022-08-19T05:28:24.830Z,11.80
2022-08-19T05:33:26.492Z,12.10
2022-08-19T05:38:28.363Z,12.73
2022-08-19T05:43:30.046Z,12.20
2022-08-19T05:48:32.323Z,12.53
2022-08-19T05:53:34.512Z,13.10
2022-08-19T05:58:39.355Z,12.90
2022-08-19T06:03:41.301Z,13.37
2022-08-19T06:08:43.992Z,12.20
2022-08-19T06:13:51.730Z,12.83
2022-08-19T06:18:54.028Z,11.87
2022-08-19T06:23:56.215Z,12.17
2022-08-19T06:28:57.906Z,12.93
2022-08-19T06:33:59.542Z,12.10
2022-08-19T06:39:02.568Z,11.63
2022-08-19T06:44:04.449Z,10.90
2022-08-19T06:49:06.257Z,10.80
2022-08-19T06:54:08.159Z,11.90
2022-08-19T06:59:22.337Z,11.20
2022-08-19T07:04:28.734Z,9.63
2022-08-19T07:09:30.403Z,11.43
2022-08-19T07:14:32.240Z,10.60
2022-08-19T07:19:34.107Z,9.70
2022-08-19T07:24:35.990Z,10.10
2022-08-19T07:29:37.665Z,9.63
2022-08-19T07:34:40.055Z,9.67
2022-08-19T07:39:41.830Z,9.60
2022-08-19T07:44:49.953Z,9.87
2022-08-19T07:49:52.672Z,9.17
2022-08-19T07:54:54.349Z,10.53
2022-08-19T07:59:56.035Z,9.03
2022-08-19T08:05:16.362Z,9.77
2022-08-19T08:10:20.549Z,8.30
2022-08-19T08:15:23.092Z,9.27
2022-08-19T08:20:26.856Z,8.90
2022-08-19T08:25:28.542Z,8.90
2022-08-19T08:30:37.014Z,8.30
2022-08-19T08:35:39.833Z,8.47
2022-08-19T08:40:49.588Z,8.20
2022-08-19T08:46:16.304Z,8.80
2022-08-19T08:51:47.610Z,7.80
2022-08-19T08:56:50.320Z,8.33
2022-08-19T09:01:53.459Z,7.60
2022-08-19T09:07:35.421Z,7.27
2022-08-19T09:12:59.027Z,7.63
2022-08-19T09:18:04.664Z,7.33
2022-08-19T09:23:09.171Z,7.93
2022-08-19T09:28:15.048Z,9.37
2022-08-19T09:33:24.434Z,8.10
2022-08-19T09:38:26.189Z,7.77
2022-08-19T09:43:33.873Z,8.07
2022-08-19T09:48:46.932Z,7.40
2022-08-19T09:53:51.002Z,7.30
2022-08-19T09:58:54.625Z,7.50
2022-08-19T10:03:57.197Z,7.43
2022-08-19T10:08:58.882Z,8.50
2022-08-19T10:14:01.440Z,8.07
2022-08-19T10:19:03.797Z,7.37
2022-08-19T10:24:09.475Z,7.20
2022-08-19T10:29:12.439Z,7.30
2022-08-19T10:34:26.842Z,8.10
2022-08-19T10:39:43.382Z,7.20
2022-08-19T10:44:45.458Z,7.40
2022-08-19T10:50:08.801Z,7.73
2022-08-19T10:55:32.394Z,7.93
2022-08-19T11:00:35.069Z,7.80
2022-08-19T11:05:40.403Z,7.30
2022-08-19T11:10:43.726Z,7.47
2022-08-19T11:16:02.817Z,8.57
2022-08-19T11:21:09.731Z,8.77
2022-08-19T11:26:11.604Z,9.70
2022-08-19T11:31:14.307Z,9.50
2022-08-19T11:36:17.027Z,10.40
2022-08-19T11:41:19.547Z,9.00
2022-08-19T11:46:21.210Z,8.63
2022-08-19T11:51:25.399Z,14.73
2022-08-19T11:56:27.493Z,8.53
2022-08-19T12:01:29.156Z,8.47
2022-08-19T12:06:32.632Z,7.70
2022-08-19T12:11:34.587Z,7.83
2022-08-19T12:16:39.830Z,8.10
2022-08-19T12:21:46.364Z,7.30
2022-08-19T12:26:53.425Z,7.93
2022-08-19T12:32:01.403Z,7.80
2022-08-19T12:37:04.024Z,8.80
2022-08-19T12:42:06.713Z,7.53
2022-08-19T12:47:09.119Z,7.63
2022-08-19T12:52:11.793Z,7.20
2022-08-19T12:57:16.246Z,7.57
2022-08-19T13:02:18.285Z,7.40
2022-08-19T13:07:20.238Z,8.37
2022-08-19T13:12:24.943Z,7.50
2022-08-19T13:17:27.009Z,12.97
2022-08-19T13:22:28.694Z,8.53
2022-08-19T13:27:30.502Z,8.03
2022-08-19T13:32:50.508Z,7.67
2022-08-19T13:37:52.716Z,7.50
2022-08-19T13:42:55.221Z,8.00
2022-08-19T13:47:59.656Z,7.07
2022-08-19T13:53:03.317Z,7.77
2022-08-19T13:58:05.604Z,7.60
2022-08-19T14:03:09.264Z,7.57
2022-08-19T14:08:11.297Z,6.97
2022-08-19T14:13:15.674Z,6.90
2022-08-19T14:18:18.338Z,6.60
2022-08-19T14:23:20.951Z,7.70
2022-08-19T14:28:23.221Z,6.93
2022-08-19T14:33:30.654Z,6.80
2022-08-19T14:38:32.419Z,6.50
2022-08-19T14:43:34.383Z,6.17
2022-08-19T14:48:37.594Z,6.00
2022-08-19T14:53:43.212Z,5.87
2022-08-19T14:58:45.286Z,6.13
2022-08-19T15:03:47.057Z,5.40
2022-08-19T15:08:48.875Z,5.90
2022-08-19T15:13:50.942Z,5.90
2022-08-19T15:18:54.293Z,5.40
2022-08-19T15:23:57.836Z,5.30
2022-08-19T15:29:00.579Z,5.90
2022-08-19T15:34:02.890Z,6.30
2022-08-19T15:39:05.668Z,8.00
2022-08-19T15:44:12.160Z,5.30
2022-08-19T15:49:15.463Z,5.50
2022-08-19T15:54:19.479Z,4.63
2022-08-19T15:59:40.871Z,5.33
2022-08-19T16:05:07.798Z,5.20
2022-08-19T16:10:26.437Z,4.97
2022-08-19T16:15:30.478Z,4.87
2022-08-19T16:20:35.915Z,4.97
2022-08-19T16:25:39.306Z,6.13
2022-08-19T16:30:41.350Z,5.57
2022-08-19T16:35:43.031Z,5.30
2022-08-19T16:40:54.594Z,5.57
2022-08-19T16:45:56.280Z,5.57
2022-08-19T16:50:57.962Z,6.17
2022-08-19T16:55:59.680Z,7.27
2022-08-19T17:01:06.308Z,8.83
2022-08-19T17:06:20.642Z,6.10
2022-08-19T17:11:23.390Z,5.97
2022-08-19T17:16:27.266Z,6.10
2022-08-19T17:21:31.908Z,5.60
2022-08-19T17:26:33.575Z,5.97
2022-08-19T17:31:35.931Z,6.00
2022-08-19T17:36:38.127Z,5.53
2022-08-19T17:41:39.789Z,5.43
2022-08-19T17:46:41.442Z,5.57
2022-08-19T17:51:44.979Z,5.77
2022-08-19T17:56:46.731Z,5.77
2022-08-19T18:01:53.873Z,6.00
2022-08-19T18:06:56.155Z,5.40
2022-08-19T18:11:59.913Z,6.07
2022-08-19T18:17:05.403Z,9.40
2022-08-19T18:22:07.070Z,6.80
2022-08-19T18:27:09.913Z,6.13
2022-08-19T18:32:12.796Z,6.43
2022-08-19T18:37:14.567Z,6.30
2022-08-19T18:42:35.454Z,6.17
2022-08-19T18:47:55.838Z,7.37
2022-08-19T18:52:57.667Z,7.00
2022-08-19T18:58:01.669Z,7.03
2022-08-19T19:03:03.315Z,7.00
2022-08-19T19:08:04.981Z,7.07
2022-08-19T19:13:06.614Z,7.67
2022-08-19T19:18:09.198Z,6.80
2022-08-19T19:23:10.878Z,7.23
2022-08-19T19:28:15.876Z,8.10
2022-08-19T19:33:17.895Z,7.87
2022-08-19T19:38:19.644Z,8.00
2022-08-19T19:43:21.424Z,7.90
2022-08-19T19:48:24.687Z,7.80
2022-08-19T19:53:26.445Z,8.50
2022-08-19T19:58:29.292Z,8.30
2022-08-19T20:03:31.140Z,8.63
2022-08-19T20:08:51.513Z,9.20
2022-08-19T20:13:53.180Z,10.33
2022-08-19T20:18:55.642Z,10.30
2022-08-19T20:24:09.020Z,9.40
2022-08-19T20:29:37.893Z,9.10
2022-08-19T20:34:33.887Z,9.27
2022-08-19T20:39:35.631Z,9.27
2022-08-19T20:44:37.886Z,9.10
2022-08-19T20:49:39.673Z,9.90
2022-08-19T20:54:41.326Z,12.10
2022-08-19T20:59:43.003Z,11.07
2022-08-19T21:04:44.673Z,11.37
2022-08-19T21:09:46.333Z,10.97
2022-08-19T21:14:47.980Z,11.90
2022-08-19T21:19:50.682Z,11.10
2022-08-19T21:24:52.401Z,11.60
2022-08-19T21:29:54.913Z,11.87
2022-08-19T21:34:56.611Z,11.23
2022-08-19T21:39:58.317Z,11.47
2022-08-19T21:45:00.191Z,12.43
2022-08-19T21:50:02.044Z,12.63
2022-08-19T21:55:05.156Z,13.30
2022-08-19T22:00:10.325Z,12.63
2022-08-19T22:05:12.139Z,13.43
2022-08-19T22:10:13.791Z,12.73
2022-08-19T22:15:15.583Z,11.67
2022-08-19T22:20:21.895Z,11.47
2022-08-19T22:25:31.835Z,11.00
2022-08-19T22:30:34.996Z,11.30
2022-08-19T22:35:37.476Z,11.47
2022-08-19T22:40:41.135Z,11.97
2022-08-19T22:45:43.036Z,11.60
2022-08-19T22:51:05.696Z,12.77
2022-08-19T22:56:10.862Z,12.80
2022-08-19T23:01:27.198Z,13.83
2022-08-19T23:06:33.451Z,13.93
2022-08-19T23:11:38.262Z,14.40
2022-08-19T23:16:50.385Z,15.83
2022-08-19T23:21:52.624Z,14.20
2022-08-19T23:27:12.910Z,13.60
2022-08-19T23:32:16.148Z,15.20
2022-08-19T23:37:17.948Z,15.00
2022-08-19T23:42:20.565Z,15.50
2022-08-19T23:47:22.466Z,15.43
2022-08-19T23:52:24.188Z,15.27
2022-08-19T23:57:25.832Z,15.17
